This is the latest recevied weather packets stored in our database for station/object EA7BW-10. If no packets are shown the sender has not sent any weather packets the latest 10 day(s).
| Time | Temp. | Humidity | Pressure | Rain* | Wind** | Luminosity | Snow |
|---|---|---|---|---|---|---|---|
| 1777711396 | 22.78° C | 50% | 1012.6 hPa | - | - | - | - |
| 1777710195 | 21.67° C | 51% | 1012.5 hPa | - | - | - | - |
| 1777708995 | 22.22° C | 50% | 1012.6 hPa | - | - | - | - |
| 1777707795 | 21.11° C | 51% | 1012.5 hPa | - | - | - | - |
| 1777706595 | 19.44° C | 53% | 1012.4 hPa | - | - | - | - |
| 1777705395 | 19.44° C | 53% | 1012.3 hPa | - | - | - | - |
| 1777704195 | 18.89° C | 53% | 1012.4 hPa | - | - | - | - |
| 1777702995 | 17.78° C | 54% | 1012.2 hPa | - | - | - | - |
| 1777701795 | 17.78° C | 54% | 1012.2 hPa | - | - | - | - |
| 1777700595 | 17.78° C | 53% | 1012.1 hPa | - | - | - | - |
| 1777699395 | 17.78° C | 53% | 1012 hPa | - | - | - | - |
| 1777698194 | 17.22° C | 53% | 1012.1 hPa | - | - | - | - |
| 1777696994 | 17.22° C | 53% | 1011.9 hPa | - | - | - | - |
| 1777695794 | 17.22° C | 53% | 1011.8 hPa | - | - | - | - |
| 1777694594 | 17.22° C | 53% | 1012 hPa | - | - | - | - |
| 1777693394 | 17.78° C | 51% | 1011.9 hPa | - | - | - | - |
| 1777692194 | 17.78° C | 51% | 1012.2 hPa | - | - | - | - |
| 1777690994 | 17.22° C | 51% | 1012.1 hPa | - | - | - | - |
| 1777689794 | 17.78° C | 51% | 1012.2 hPa | - | - | - | - |
| 1777688594 | 18.33° C | 50% | 1012.5 hPa | - | - | - | - |
| 1777687394 | 18.33° C | 49% | 1012.6 hPa | - | - | - | - |
| 1777686194 | 18.33° C | 49% | 1012.7 hPa | - | - | - | - |
| 1777685004 | 18.89° C | 49% | 1013 hPa | - | - | - | - |
| 1777683793 | 19.44° C | 48% | 1013.2 hPa | - | - | - | - |
| 1777682593 | 19.44° C | 48% | 1013.3 hPa | - | - | - | - |
* Rain since midnight (hover to see other rain measurements)
** Current wind speed in m/s (hover to see current wind gust speed)